createdAt,value
2023-03-15T00:03:39.999Z,100206.00
2023-03-15T00:07:43.108Z,100211.78
2023-03-15T00:11:47.447Z,100218.56
2023-03-15T00:15:54.170Z,100218.09
2023-03-15T00:19:57.408Z,100222.59
2023-03-15T00:24:00.410Z,100237.16
2023-03-15T00:28:04.939Z,100220.22
2023-03-15T00:32:08.540Z,100249.50
2023-03-15T00:36:12.532Z,100257.44
2023-03-15T00:40:15.739Z,100267.97
2023-03-15T00:44:20.111Z,100252.59
2023-03-15T00:48:23.061Z,100270.72
2023-03-15T00:52:26.904Z,100265.00
2023-03-15T00:56:30.790Z,100255.88
2023-03-15T01:00:35.924Z,100261.06
2023-03-15T01:04:39.344Z,100267.00
2023-03-15T01:08:42.557Z,100281.19
2023-03-15T01:12:45.645Z,100284.59
2023-03-15T01:16:50.141Z,100286.81
2023-03-15T01:20:53.184Z,100295.78
2023-03-15T01:24:56.181Z,100293.75
2023-03-15T01:28:59.507Z,100306.25
2023-03-15T01:33:03.898Z,100297.59
2023-03-15T01:37:07.294Z,100313.59
2023-03-15T01:41:17.621Z,100300.41
2023-03-15T01:45:58.010Z,100303.94
2023-03-15T01:50:08.012Z,100308.94
2023-03-15T01:54:18.417Z,100317.53
2023-03-15T01:58:25.691Z,100327.63
2023-03-15T02:02:31.490Z,100321.53
2023-03-15T02:06:37.084Z,100317.84
2023-03-15T02:10:46.037Z,100313.81
2023-03-15T02:14:51.766Z,100309.78
2023-03-15T02:18:56.902Z,100322.59
2023-03-15T02:23:04.740Z,100322.63
2023-03-15T02:27:08.013Z,100333.63
2023-03-15T02:31:12.790Z,100321.50
2023-03-15T02:35:25.039Z,100330.75
2023-03-15T02:39:30.283Z,100335.13
2023-03-15T02:43:34.573Z,100330.75
2023-03-15T02:47:40.648Z,100327.19
2023-03-15T02:51:43.975Z,100328.56
2023-03-15T02:55:47.602Z,100338.50
2023-03-15T02:59:51.421Z,100347.59
2023-03-15T03:03:56.426Z,100350.78
2023-03-15T03:08:02.857Z,100353.31
2023-03-15T03:12:06.616Z,100353.66
2023-03-15T03:16:10.781Z,100360.44
2023-03-15T03:20:16.342Z,100363.13
2023-03-15T03:24:22.564Z,100360.28
2023-03-15T03:28:27.730Z,100369.91
2023-03-15T03:32:31.933Z,100373.75
2023-03-15T03:36:36.662Z,100392.03
2023-03-15T03:40:40.692Z,100398.00
2023-03-15T03:44:44.352Z,100408.75
2023-03-15T03:48:48.302Z,100411.00
2023-03-15T03:52:53.387Z,100419.34
2023-03-15T03:57:01.056Z,100421.66
2023-03-15T04:01:08.716Z,100434.00
2023-03-15T04:05:14.541Z,100439.81
2023-03-15T04:09:19.765Z,100440.13
2023-03-15T04:13:25.836Z,100454.00
2023-03-15T04:17:29.416Z,100440.91
2023-03-15T04:21:33.161Z,100447.53
2023-03-15T04:25:58.146Z,100452.75
2023-03-15T04:30:39.933Z,100446.28
2023-03-15T04:34:51.506Z,100456.25
2023-03-15T04:39:18.396Z,100455.38
2023-03-15T04:43:34.730Z,100464.53
2023-03-15T04:47:51.619Z,100454.75
2023-03-15T04:52:12.839Z,100459.94
2023-03-15T04:56:36.697Z,100471.34
2023-03-15T05:01:07.100Z,100478.88
2023-03-15T05:05:25.629Z,100476.41
2023-03-15T05:09:41.289Z,100485.72
2023-03-15T05:13:47.342Z,100499.13
2023-03-15T05:18:04.177Z,100499.88
2023-03-15T05:22:10.080Z,100513.03
2023-03-15T05:26:42.432Z,100516.13
2023-03-15T05:31:00.113Z,100527.28
2023-03-15T05:35:26.596Z,100528.06
2023-03-15T05:39:43.277Z,100532.13
2023-03-15T05:44:15.194Z,100545.84
2023-03-15T05:48:42.884Z,100549.78
2023-03-15T05:53:10.641Z,100557.94
2023-03-15T05:57:24.423Z,100563.34
2023-03-15T06:01:44.523Z,100570.06
2023-03-15T06:05:55.218Z,100572.13
2023-03-15T06:10:11.219Z,100572.63
2023-03-15T06:14:14.442Z,100570.13
2023-03-15T06:18:28.806Z,100579.00
2023-03-15T06:22:32.012Z,100598.25
2023-03-15T06:26:43.126Z,100609.13
2023-03-15T06:30:47.052Z,100609.81
2023-03-15T06:34:50.937Z,100613.50
2023-03-15T06:38:55.070Z,100615.75
2023-03-15T06:43:04.136Z,100621.97
2023-03-15T06:47:07.969Z,100628.75
2023-03-15T06:51:11.235Z,100630.47
2023-03-15T06:55:18.221Z,100646.84
2023-03-15T06:59:23.603Z,100658.03
2023-03-15T07:03:26.766Z,100658.41
2023-03-15T07:07:29.806Z,100676.78
2023-03-15T07:11:33.749Z,100680.00
2023-03-15T07:15:38.802Z,100687.03
2023-03-15T07:19:55.523Z,100691.56
2023-03-15T07:23:59.557Z,100695.59
2023-03-15T07:28:03.144Z,100703.00
2023-03-15T07:32:08.399Z,100701.22
2023-03-15T07:36:11.486Z,100713.94
2023-03-15T07:40:16.335Z,100712.53
2023-03-15T07:44:19.554Z,100727.91
2023-03-15T07:48:24.376Z,100733.69
2023-03-15T07:52:27.486Z,100739.81
2023-03-15T07:56:30.533Z,100744.31
2023-03-15T08:00:33.923Z,100753.75
2023-03-15T08:04:38.398Z,100747.53
2023-03-15T08:08:41.496Z,100757.72
2023-03-15T08:12:45.416Z,100765.38
2023-03-15T08:16:48.494Z,100763.00
2023-03-15T08:20:53.062Z,100766.78
2023-03-15T08:24:57.734Z,100774.88
2023-03-15T08:29:01.099Z,100776.72
2023-03-15T08:33:05.249Z,100768.63
2023-03-15T08:37:11.953Z,100775.56
2023-03-15T08:41:14.992Z,100790.19
2023-03-15T08:45:18.326Z,100785.34
2023-03-15T08:49:21.504Z,100768.78
2023-03-15T08:53:25.925Z,100766.69
2023-03-15T08:57:29.386Z,100757.03
2023-03-15T09:01:32.421Z,100758.84
2023-03-15T09:05:35.522Z,100748.81
2023-03-15T09:09:40.014Z,100753.72
2023-03-15T09:13:43.122Z,100751.50
2023-03-15T09:17:46.638Z,100744.34
2023-03-15T09:21:49.742Z,100748.03
2023-03-15T09:25:54.258Z,100756.50
2023-03-15T09:29:57.351Z,100743.88
2023-03-15T09:34:00.688Z,100756.31
2023-03-15T09:38:04.867Z,100751.31
2023-03-15T09:42:17.378Z,100765.25
2023-03-15T09:46:32.110Z,100767.69
2023-03-15T09:50:38.676Z,100766.09
2023-03-15T09:54:45.584Z,100770.56
2023-03-15T09:58:52.741Z,100773.44
2023-03-15T10:03:02.308Z,100771.28
2023-03-15T10:07:07.890Z,100772.69
2023-03-15T10:11:16.403Z,100779.91
2023-03-15T10:15:31.740Z,100778.22
2023-03-15T10:19:44.923Z,100783.13
2023-03-15T10:23:52.554Z,100778.13
2023-03-15T10:28:00.351Z,100780.41
2023-03-15T10:32:07.367Z,100786.19
2023-03-15T10:36:16.252Z,100785.13
2023-03-15T10:40:41.026Z,100786.09
2023-03-15T10:44:44.136Z,100782.78
2023-03-15T10:48:58.751Z,100785.81
2023-03-15T10:53:10.498Z,100769.75
2023-03-15T10:57:16.672Z,100781.78
2023-03-15T11:01:25.875Z,100792.75
2023-03-15T11:05:33.387Z,100798.72
2023-03-15T11:09:41.963Z,100803.66
2023-03-15T11:13:59.740Z,100812.44
2023-03-15T11:18:03.229Z,100821.66
2023-03-15T11:22:12.340Z,100821.81
2023-03-15T11:26:31.544Z,100830.00
2023-03-15T11:30:35.913Z,100819.59
2023-03-15T11:34:42.411Z,100830.41
2023-03-15T11:38:47.405Z,100843.19
2023-03-15T11:42:55.539Z,100842.16
2023-03-15T11:47:02.401Z,100845.25
2023-03-15T11:51:06.963Z,100851.84
2023-03-15T11:55:19.567Z,100850.78
2023-03-15T11:59:27.136Z,100858.78
2023-03-15T12:03:35.590Z,100847.03
2023-03-15T12:07:57.886Z,100837.22
2023-03-15T12:12:04.670Z,100833.22
2023-03-15T12:16:08.401Z,100845.19
2023-03-15T12:20:21.487Z,100837.88
2023-03-15T12:24:27.962Z,100833.13
2023-03-15T12:34:45.951Z,100826.53
2023-03-15T12:39:00.674Z,100827.31
2023-03-15T12:43:04.063Z,100816.44
2023-03-15T12:47:07.848Z,100825.41
2023-03-15T12:51:45.181Z,100829.91
2023-03-15T12:55:50.067Z,100831.28
2023-03-15T12:59:58.144Z,100821.72
2023-03-15T13:04:04.083Z,100833.94
2023-03-15T13:08:11.237Z,100828.69
2023-03-15T13:12:21.523Z,100830.97
2023-03-15T13:16:35.679Z,100830.94
2023-03-15T13:20:42.800Z,100825.09
2023-03-15T13:24:58.281Z,100827.16
2023-03-15T13:29:06.592Z,100823.13
2023-03-15T13:33:22.082Z,100839.00
2023-03-15T13:37:27.088Z,100835.25
2023-03-15T13:41:32.403Z,100831.41
2023-03-15T13:45:39.071Z,100833.38
2023-03-15T13:49:42.347Z,100831.72
2023-03-15T13:53:50.232Z,100829.69
2023-03-15T13:57:58.533Z,100828.66
2023-03-15T14:02:03.579Z,100838.28
2023-03-15T14:06:07.576Z,100848.22
2023-03-15T14:10:24.553Z,100841.28
2023-03-15T14:14:30.913Z,100825.53
2023-03-15T14:18:37.074Z,100825.09
2023-03-15T14:22:43.326Z,100829.22
2023-03-15T14:26:53.312Z,100854.94
2023-03-15T14:31:00.253Z,100848.69
2023-03-15T14:35:06.943Z,100853.97
2023-03-15T14:39:18.845Z,100859.47
2023-03-15T14:43:22.437Z,100858.78
2023-03-15T14:47:27.184Z,100848.47
2023-03-15T14:51:30.887Z,100851.41
2023-03-15T14:55:35.522Z,100862.56
2023-03-15T14:59:38.586Z,100858.19
2023-03-15T15:03:47.553Z,100850.31
2023-03-15T15:07:54.769Z,100869.34
2023-03-15T15:11:57.938Z,100857.03
2023-03-15T15:16:01.481Z,100852.66
2023-03-15T15:20:07.592Z,100862.19
2023-03-15T15:24:15.724Z,100846.31
2023-03-15T15:28:33.188Z,100843.19
2023-03-15T15:32:37.603Z,100842.19
2023-03-15T15:36:44.024Z,100836.75
2023-03-15T15:40:47.105Z,100826.56
2023-03-15T15:44:50.434Z,100829.94
2023-03-15T15:48:54.155Z,100830.13
2023-03-15T15:53:00.258Z,100825.94
2023-03-15T15:57:03.701Z,100827.91
2023-03-15T16:01:10.256Z,100831.06
2023-03-15T16:05:14.921Z,100822.72
2023-03-15T16:09:21.081Z,100818.69
2023-03-15T16:13:24.213Z,100823.31
2023-03-15T16:17:28.206Z,100824.03
2023-03-15T16:21:34.557Z,100815.78
2023-03-15T16:25:39.305Z,100820.91
2023-03-15T16:29:45.731Z,100819.22
2023-03-15T16:33:48.863Z,100821.31
2023-03-15T16:37:56.752Z,100830.44
2023-03-15T16:42:01.207Z,100829.69
2023-03-15T16:46:13.444Z,100842.66
2023-03-15T16:50:17.549Z,100837.31
2023-03-15T16:54:38.292Z,100838.16
2023-03-15T16:58:45.380Z,100847.34
2023-03-15T17:02:49.900Z,100844.06
2023-03-15T17:06:53.000Z,100831.00
2023-03-15T17:10:56.127Z,100839.78
2023-03-15T17:15:01.769Z,100843.47
2023-03-15T17:19:05.479Z,100850.00
2023-03-15T17:23:09.606Z,100850.56
2023-03-15T17:27:23.088Z,100847.25
2023-03-15T17:31:33.061Z,100850.84
2023-03-15T17:35:38.254Z,100848.59
2023-03-15T17:39:45.591Z,100852.09
2023-03-15T17:43:49.860Z,100848.09
2023-03-15T17:47:55.686Z,100860.50
2023-03-15T17:51:59.024Z,100867.66
2023-03-15T17:56:02.815Z,100865.88
2023-03-15T18:00:10.563Z,100866.91
2023-03-15T18:04:17.455Z,100860.47
2023-03-15T18:08:22.361Z,100863.75
2023-03-15T18:12:25.509Z,100857.44
2023-03-15T18:16:29.104Z,100864.94
2023-03-15T18:20:35.004Z,100878.91
2023-03-15T18:24:38.902Z,100868.41
2023-03-15T18:28:42.956Z,100880.97
2023-03-15T18:32:47.248Z,100880.69
2023-03-15T18:36:52.112Z,100880.16
2023-03-15T18:40:57.433Z,100885.28
2023-03-15T18:45:00.589Z,100882.91
2023-03-15T18:49:04.923Z,100885.13
2023-03-15T18:53:09.388Z,100875.66
2023-03-15T18:57:12.495Z,100878.34
2023-03-15T19:01:17.544Z,100883.44
2023-03-15T19:05:21.745Z,100876.81
2023-03-15T19:09:27.130Z,100880.88
2023-03-15T19:13:30.332Z,100877.69
2023-03-15T19:17:33.540Z,100876.16
2023-03-15T19:21:36.998Z,100872.06
2023-03-15T19:25:41.512Z,100864.44
2023-03-15T19:29:44.652Z,100862.25
2023-03-15T19:33:48.125Z,100871.06
2023-03-15T19:37:51.357Z,100871.59
2023-03-15T19:41:56.038Z,100870.94
2023-03-15T19:45:59.978Z,100877.03
2023-03-15T19:50:03.306Z,100872.28
2023-03-15T19:54:06.664Z,100874.69
2023-03-15T19:58:11.166Z,100857.72
2023-03-15T20:02:15.174Z,100863.16
2023-03-15T20:06:18.480Z,100860.28
2023-03-15T20:10:22.423Z,100869.25
2023-03-15T20:14:27.103Z,100874.03
2023-03-15T20:18:31.563Z,100881.50
2023-03-15T20:22:35.682Z,100879.97
2023-03-15T20:26:39.189Z,100876.09
2023-03-15T20:30:44.553Z,100871.81
2023-03-15T20:34:48.209Z,100882.53
2023-03-15T20:38:52.175Z,100880.63
2023-03-15T20:42:55.763Z,100883.88
2023-03-15T20:47:00.587Z,100893.00
2023-03-15T20:51:04.378Z,100883.88
2023-03-15T20:55:08.773Z,100877.41
2023-03-15T20:59:12.300Z,100883.84
2023-03-15T21:03:18.227Z,100879.25
2023-03-15T21:07:21.516Z,100884.84
2023-03-15T21:11:24.837Z,100869.28
2023-03-15T21:15:28.212Z,100871.47
2023-03-15T21:19:32.971Z,100867.56
2023-03-15T21:23:36.667Z,100860.78
2023-03-15T21:27:41.076Z,100864.00
2023-03-15T21:31:44.437Z,100849.75
2023-03-15T21:35:49.117Z,100841.75
2023-03-15T21:39:54.069Z,100838.72
2023-03-15T21:43:57.396Z,100850.88
2023-03-15T21:48:00.725Z,100840.22
2023-03-15T21:52:05.831Z,100845.13
2023-03-15T21:56:10.074Z,100844.94
2023-03-15T22:00:17.046Z,100841.03
2023-03-15T22:04:20.449Z,100841.84
2023-03-15T22:08:25.893Z,100836.59
2023-03-15T22:12:29.241Z,100832.84
2023-03-15T22:16:33.486Z,100832.97
2023-03-15T22:20:36.997Z,100831.97
2023-03-15T22:24:41.908Z,100832.59
2023-03-15T22:28:45.088Z,100835.78
2023-03-15T22:32:48.385Z,100825.94
2023-03-15T22:36:52.917Z,100823.88
2023-03-15T22:41:05.747Z,100820.78
2023-03-15T22:45:10.302Z,100824.19
2023-03-15T22:49:13.699Z,100815.84
2023-03-15T22:53:16.858Z,100816.69
2023-03-15T22:57:22.448Z,100815.16
2023-03-15T23:01:25.954Z,100813.25
2023-03-15T23:05:29.484Z,100814.41
2023-03-15T23:09:32.641Z,100815.91
2023-03-15T23:13:37.202Z,100815.84
2023-03-15T23:17:40.423Z,100814.84
2023-03-15T23:21:43.569Z,100825.44
2023-03-15T23:25:47.316Z,100837.09
2023-03-15T23:29:55.436Z,100830.00
2023-03-15T23:33:58.563Z,100824.91
2023-03-15T23:38:01.921Z,100828.63
2023-03-15T23:42:05.826Z,100826.09
2023-03-15T23:46:10.202Z,100836.34
2023-03-15T23:50:13.847Z,100832.28
2023-03-15T23:54:16.892Z,100830.94
2023-03-15T23:58:20.814Z,100827.63
